Time;durP1;ratioP1;P1;durP2;ratioP2;P2;SDS_P1;SDS_P2;PMS_P1;PMS_P2;Temp;Humidity;BMP_temperature;BMP_pressure;BME280_temperature;BME280_humidity;BME280_pressure;Samples;Min_cycle;Max_cycle;Signal;HPM_P1;HPM_P2
2021/12/14 00:00:01;;;;;;;90.78;10.45;;;;;;;-0.57;100.00;94883.53;4840466;29;20053;-62
2021/12/14 00:02:28;;;;;;;64.47;9.77;;;;;;;-0.63;100.00;94886.38;4840226;29;20064;-62
2021/12/14 00:04:59;;;;;;;90.33;12.47;;;;;;;-0.69;100.00;94878.78;4840320;29;20050;-62
2021/12/14 00:07:26;;;;;;;46.50;9.23;;;;;;;-0.53;100.00;94882.56;4840057;29;20058;-62
2021/12/14 00:10:03;;;;;;;72.55;11.00;;;;;;;-0.38;100.00;94883.16;4840495;29;20064;-62
2021/12/14 00:12:38;;;;;;;83.50;9.48;;;;;;;-0.65;100.00;94883.22;4838694;29;20052;-62
2021/12/14 00:15:11;;;;;;;104.38;12.82;;;;;;;-0.59;100.00;94880.38;4852816;29;20065;-62
2021/12/14 00:17:52;;;;;;;167.90;14.10;;;;;;;-0.61;100.00;94888.75;4839269;29;20045;-62
2021/12/14 00:20:36;;;;;;;71.95;10.27;;;;;;;-0.45;100.00;94876.34;4823159;29;20092;-61
2021/12/14 00:25:52;;;;;;;65.15;7.15;;;;;;;-0.27;100.00;94884.41;4839346;29;20046;-62
2021/12/14 00:28:23;;;;;;;49.85;6.72;;;;;;;-0.18;100.00;94879.78;4839198;29;20049;-62
2021/12/14 00:30:51;;;;;;;70.87;6.20;;;;;;;-0.21;100.00;94881.19;4839885;29;20050;-62
2021/12/14 00:33:22;;;;;;;57.42;7.93;;;;;;;-0.56;100.00;94885.09;4837556;29;20054;-62
2021/12/14 00:35:49;;;;;;;80.72;6.93;;;;;;;-0.63;100.00;94885.59;4839621;29;20046;-62
2021/12/14 00:38:21;;;;;;;67.15;10.27;;;;;;;-0.57;100.00;94886.22;4839239;29;20075;-62
2021/12/14 00:40:55;;;;;;;113.75;10.38;;;;;;;-0.51;100.00;94880.34;4840144;29;20053;-62
2021/12/14 00:43:23;;;;;;;58.70;8.37;;;;;;;-0.55;100.00;94878.59;4838529;29;20046;-62
2021/12/14 00:45:50;;;;;;;67.82;7.57;;;;;;;-0.73;100.00;94875.94;4839999;29;20057;-62
2021/12/14 00:48:18;;;;;;;54.70;7.93;;;;;;;-0.71;100.00;94875.63;4853155;29;20072;-62
2021/12/14 00:50:51;;;;;;;74.40;7.90;;;;;;;-0.64;100.00;94878.63;4839533;29;20053;-62
2021/12/14 00:53:18;;;;;;;33.65;8.00;;;;;;;-0.46;100.00;94876.69;4839013;29;20053;-61
2021/12/14 00:55:49;;;;;;;53.13;7.27;;;;;;;-0.38;100.00;94877.75;4839589;29;20046;-62
2021/12/14 00:58:17;;;;;;;26.92;7.93;;;;;;;-0.25;100.00;94879.47;4838339;29;20060;-62
2021/12/14 01:00:53;;;;;;;54.97;8.52;;;;;;;-0.23;100.00;94875.31;4839688;29;20057;-62
2021/12/14 01:03:21;;;;;;;55.08;9.35;;;;;;;-0.20;100.00;94879.31;4838814;29;20054;-62
2021/12/14 01:05:50;;;;;;;66.32;7.20;;;;;;;-0.24;100.00;94878.38;4838062;29;20070;-62
2021/12/14 01:08:23;;;;;;;37.23;5.87;;;;;;;-0.31;100.00;94883.47;4838768;29;20453;-62
2021/12/14 01:11:04;;;;;;;88.50;7.72;;;;;;;-0.42;100.00;94888.41;4835365;29;20068;-64
2021/12/14 01:13:34;;;;;;;44.42;6.03;;;;;;;-0.33;100.00;94886.47;4810525;29;20049;-62
2021/12/14 01:16:19;;;;;;;51.45;5.68;;;;;;;-0.38;100.00;94888.53;4802616;29;20554;-63
2021/12/14 01:19:00;;;;;;;22.27;4.80;;;;;;;-0.22;100.00;94884.25;4802382;29;20208;-62
2021/12/14 01:24:21;;;;;;;65.70;7.63;;;;;;;-0.35;100.00;94898.69;4802613;29;20073;-62
2021/12/14 01:26:48;;;;;;;52.17;7.65;;;;;;;-0.38;100.00;94897.44;4801071;29;20442;-62
2021/12/14 01:29:17;;;;;;;61.42;8.32;;;;;;;-0.56;100.00;94896.69;4802200;29;20059;-62
2021/12/14 01:31:47;;;;;;;75.35;8.68;;;;;;;-0.60;100.00;94898.44;4802818;29;20065;-62
2021/12/14 01:34:21;;;;;;;59.07;9.20;;;;;;;-0.58;100.00;94904.31;4802194;29;20058;-62
2021/12/14 01:36:54;;;;;;;43.88;7.40;;;;;;;-0.56;100.00;94903.97;4803092;29;20043;-62
2021/12/14 01:42:20;;;;;;;33.95;5.85;;;;;;;-0.57;100.00;94902.41;4802849;29;20437;-62
2021/12/14 01:44:59;;;;;;;31.58;5.82;;;;;;;-0.61;100.00;94903.03;4802089;29;21546;-63
2021/12/14 01:47:56;;;;;;;34.60;5.73;;;;;;;-0.77;100.00;94891.16;4801936;29;20057;-62
2021/12/14 01:50:32;;;;;;;56.92;5.85;;;;;;;-0.84;100.00;94902.44;4817781;29;20058;-62
2021/12/14 01:53:00;;;;;;;39.13;5.75;;;;;;;-0.83;100.00;94898.63;4840209;29;20097;-62
2021/12/14 01:55:30;;;;;;;37.17;5.25;;;;;;;-0.89;100.00;94902.59;4841969;29;20514;-63
2021/12/14 01:58:00;;;;;;;53.20;6.10;;;;;;;-0.87;100.00;94903.06;4842475;29;20518;-62
2021/12/14 02:00:42;;;;;;;37.93;6.83;;;;;;;-0.82;100.00;94902.13;4856051;29;20056;-62
2021/12/14 02:03:14;;;;;;;34.00;7.30;;;;;;;-0.81;100.00;94896.41;4842219;29;20564;-60
2021/12/14 02:05:45;;;;;;;37.67;6.72;;;;;;;-0.70;100.00;94898.78;4842310;29;20041;-62
2021/12/14 02:08:22;;;;;;;45.58;7.45;;;;;;;-0.74;100.00;94904.03;4841836;29;20058;-61
2021/12/14 02:10:49;;;;;;;57.30;17.17;;;;;;;-0.64;100.00;94908.28;4839285;29;20098;-62
2021/12/14 02:13:32;;;;;;;51.30;6.63;;;;;;;-0.62;100.00;94906.84;4807775;29;20057;-62
2021/12/14 02:16:00;;;;;;;42.90;6.43;;;;;;;-0.57;100.00;94907.78;4823553;29;20390;-62
2021/12/14 02:18:47;;;;;;;26.50;6.47;;;;;;;-0.55;100.00;94903.66;4823218;29;20487;-62
2021/12/14 02:21:15;;;;;;;32.70;7.22;;;;;;;-0.56;100.00;94907.47;4837122;29;20058;-63
2021/12/14 02:23:46;;;;;;;88.68;7.07;;;;;;;-0.69;100.00;94913.84;4823890;29;20062;-62
2021/12/14 02:26:17;;;;;;;33.70;5.53;;;;;;;-0.72;100.00;94919.88;4823142;29;20126;-61
2021/12/14 02:28:45;;;;;;;50.15;6.63;;;;;;;-0.68;100.00;94915.44;4823849;29;20058;-62
2021/12/14 02:31:16;;;;;;;52.50;6.82;;;;;;;-0.76;100.00;94921.63;4823282;29;20058;-62
2021/12/14 02:33:46;;;;;;;37.53;5.25;;;;;;;-0.81;100.00;94909.09;4823837;29;20057;-62
2021/12/14 02:36:28;;;;;;;58.95;6.32;;;;;;;-0.85;100.00;94908.13;4822960;29;20106;-61
2021/12/14 02:39:07;;;;;;;56.27;5.87;;;;;;;-0.86;100.00;94910.06;4823386;29;20050;-62
2021/12/14 02:41:47;;;;;;;53.78;9.98;;;;;;;-0.74;100.00;94911.31;4822158;29;20130;-62
2021/12/14 02:44:15;;;;;;;64.50;6.78;;;;;;;-1.02;100.00;94917.81;4822762;29;20070;-62
2021/12/14 02:46:47;;;;;;;89.45;7.43;;;;;;;-0.91;100.00;94915.59;4823448;29;20078;-63
2021/12/14 02:49:19;;;;;;;66.90;6.72;;;;;;;-0.93;100.00;94912.41;4822654;29;20060;-62
2021/12/14 02:52:00;;;;;;;66.80;7.03;;;;;;;-0.97;100.00;94910.69;4805488;29;20151;-62
2021/12/14 02:54:43;;;;;;;95.68;7.78;;;;;;;-0.88;100.00;94916.88;4804428;29;20605;-62
2021/12/14 02:57:18;;;;;;;141.90;8.95;;;;;;;-1.11;100.00;94910.84;4803920;29;20058;-61
2021/12/14 02:59:47;;;;;;;63.92;6.93;;;;;;;-1.04;100.00;94914.66;4805158;29;20055;-62
2021/12/14 03:02:28;;;;;;;132.43;9.18;;;;;;;-1.22;100.00;94913.84;4804598;29;20473;-62
2021/12/14 03:04:58;;;;;;;58.00;5.63;;;;;;;-1.08;100.00;94918.31;4804454;29;20065;-62
2021/12/14 03:07:29;;;;;;;48.65;5.30;;;;;;;-0.96;100.00;94914.97;4840636;29;20054;-62
2021/12/14 03:12:49;;;;;;;41.70;5.30;;;;;;;-0.90;100.00;94905.63;4808351;29;21636;-62
2021/12/14 03:15:26;;;;;;;37.25;5.22;;;;;;;-0.86;100.00;94901.97;4819118;29;20056;-62
2021/12/14 03:17:58;;;;;;;18.37;5.50;;;;;;;-0.91;100.00;94890.56;4823123;29;20046;-62
2021/12/14 03:20:33;;;;;;;99.32;7.28;;;;;;;-0.93;100.00;94893.56;4822245;29;20049;-62
2021/12/14 03:23:06;;;;;;;87.25;6.78;;;;;;;-1.27;100.00;94895.16;4821745;29;20066;-62
2021/12/14 03:25:37;;;;;;;81.78;7.35;;;;;;;-1.18;100.00;94889.78;4822078;29;20050;-62
2021/12/14 03:28:05;;;;;;;54.45;6.40;;;;;;;-1.21;100.00;94888.50;4822784;29;20050;-62
2021/12/14 03:30:41;;;;;;;79.13;5.97;;;;;;;-1.14;100.00;94890.72;4822066;29;20528;-62
2021/12/14 03:33:17;;;;;;;108.53;7.32;;;;;;;-1.30;100.00;94887.72;4821669;29;20056;-62
2021/12/14 03:35:52;;;;;;;69.65;5.78;;;;;;;-1.33;100.00;94880.25;4821764;29;21752;-62
2021/12/14 03:38:24;;;;;;;114.82;10.20;;;;;;;-1.32;100.00;94887.22;4821960;29;20053;-62
2021/12/14 03:41:28;;;;;;;80.15;8.23;;;;;;;-1.41;100.00;94881.84;4822550;29;20150;-62
2021/12/14 03:44:11;;;;;;;163.00;9.37;;;;;;;-1.44;100.00;94890.53;4821787;29;20932;-62
2021/12/14 03:47:03;;;;;;;76.95;8.18;;;;;;;-1.31;100.00;94885.31;4835656;29;20052;-62
2021/12/14 03:49:47;;;;;;;52.05;13.57;;;;;;;-1.22;100.00;94886.91;4823614;29;21012;-62
2021/12/14 03:52:17;;;;;;;79.90;10.18;;;;;;;-1.29;100.00;94891.19;4839866;29;20045;-62
2021/12/14 03:54:44;;;;;;;65.15;7.47;;;;;;;-1.30;100.00;94881.53;4840556;29;20046;-62
2021/12/14 03:57:12;;;;;;;30.93;5.40;;;;;;;-1.38;100.00;94883.09;4839418;29;20053;-63
2021/12/14 03:59:39;;;;;;;27.67;5.28;;;;;;;-1.39;100.00;94880.72;4840586;29;20054;-62
2021/12/14 04:02:10;;;;;;;76.32;5.78;;;;;;;-1.45;100.00;94880.09;4839278;29;20050;-62
2021/12/14 04:04:43;;;;;;;60.50;5.25;;;;;;;-1.48;100.00;94878.03;4839484;29;20696;-62
2021/12/14 04:07:15;;;;;;;73.82;5.35;;;;;;;-1.50;100.00;94880.25;4839947;29;20061;-61
2021/12/14 04:09:42;;;;;;;72.20;5.43;;;;;;;-1.41;100.00;94886.41;4839223;29;20061;-62
2021/12/14 04:12:13;;;;;;;76.90;5.28;;;;;;;-1.55;100.00;94888.47;4817390;29;20579;-61
2021/12/14 04:14:44;;;;;;;99.47;7.93;;;;;;;-1.49;100.00;94893.41;4814074;29;20081;-62
2021/12/14 04:17:11;;;;;;;67.97;7.15;;;;;;;-1.49;100.00;94892.59;4820743;29;20056;-62
2021/12/14 04:19:39;;;;;;;76.63;8.48;;;;;;;-1.48;100.00;94889.59;4821770;29;20421;-62
2021/12/14 04:22:16;;;;;;;79.47;7.17;;;;;;;-1.52;100.00;94887.84;4835761;29;20058;-62
2021/12/14 04:24:46;;;;;;;40.47;7.18;;;;;;;-1.42;100.00;94892.94;4821053;29;20106;-62
2021/12/14 04:27:18;;;;;;;41.15;5.90;;;;;;;-1.46;100.00;94898.13;4821063;29;20046;-62
2021/12/14 04:29:45;;;;;;;24.10;5.00;;;;;;;-1.49;100.00;94895.28;4821949;29;20046;-62
2021/12/14 04:32:14;;;;;;;48.25;8.25;;;;;;;-1.46;100.00;94902.75;4821541;29;20050;-63
2021/12/14 04:34:42;;;;;;;19.23;6.63;;;;;;;-1.29;100.00;94897.38;4835191;29;20046;-62
2021/12/14 04:37:10;;;;;;;20.35;5.40;;;;;;;-1.17;100.00;94904.81;4821728;29;20054;-62
2021/12/14 04:39:46;;;;;;;17.67;5.18;;;;;;;-1.15;100.00;94905.28;4820453;29;20399;-62
2021/12/14 04:53:49;;;;;;;21.75;4.80;;;;;;;-1.28;100.00;94928.56;4839027;29;20060;-62
2021/12/14 04:56:22;;;;;;;68.72;5.20;;;;;;;-1.35;100.00;94932.84;4838537;29;20050;-62
2021/12/14 04:59:20;;;;;;;58.05;5.45;;;;;;;-1.37;100.00;94938.53;4853630;29;20140;-62
2021/12/14 05:01:47;;;;;;;51.17;5.20;;;;;;;-1.51;100.00;94940.56;4838486;29;21856;-62
2021/12/14 05:04:19;;;;;;;25.52;4.60;;;;;;;-1.56;100.00;94943.41;4838757;29;20050;-64
2021/12/14 05:06:56;;;;;;;44.00;5.72;;;;;;;-1.69;100.00;94937.03;4839382;29;20057;-62
2021/12/14 05:09:29;;;;;;;26.98;6.30;;;;;;;-1.66;100.00;94942.59;4852613;29;20042;-62
2021/12/14 05:12:01;;;;;;;45.88;13.45;;;;;;;-1.67;100.00;94934.81;4839177;29;20508;-62
2021/12/14 05:14:30;;;;;;;35.87;6.07;;;;;;;-1.56;100.00;94919.19;4838422;29;20048;-62
2021/12/14 05:17:05;;;;;;;44.70;5.82;;;;;;;-1.64;100.00;94918.06;4839408;29;20046;-62
2021/12/14 05:19:35;;;;;;;33.83;6.53;;;;;;;-1.51;100.00;94910.94;4838593;29;20076;-62
2021/12/14 05:22:19;;;;;;;82.07;15.93;;;;;;;-1.55;100.00;94905.44;4837980;29;20052;-62
2021/12/14 05:24:52;;;;;;;56.22;17.98;;;;;;;-1.61;100.00;94909.34;4838337;29;21584;-62
2021/12/14 05:27:26;;;;;;;167.80;14.90;;;;;;;-1.52;100.00;94896.72;4838690;29;20050;-62
2021/12/14 05:30:00;;;;;;;71.43;9.73;;;;;;;-1.43;100.00;94888.63;4845395;29;20049;-62
2021/12/14 05:32:27;;;;;;;53.33;9.50;;;;;;;-1.56;100.00;94889.59;4858811;29;20053;-62
2021/12/14 05:34:54;;;;;;;56.13;8.38;;;;;;;-1.62;100.00;94887.03;4844978;29;20058;-62
2021/12/14 05:37:27;;;;;;;32.50;8.55;;;;;;;-1.56;100.00;94894.97;4844597;29;20518;-62
2021/12/14 05:40:00;;;;;;;49.90;7.27;;;;;;;-1.66;100.00;94904.13;4845103;29;20046;-62
2021/12/14 05:45:18;;;;;;;57.92;23.77;;;;;;;-1.54;100.00;94896.22;4844606;29;20505;-62
2021/12/14 05:47:51;;;;;;;33.42;14.40;;;;;;;-1.45;100.00;94897.03;4845159;29;20056;-62
2021/12/14 05:50:26;;;;;;;23.85;7.50;;;;;;;-1.51;100.00;94886.72;4844116;29;20046;-63
2021/12/14 05:52:57;;;;;;;24.97;9.93;;;;;;;-1.51;100.00;94889.41;4845234;29;20061;-62
2021/12/14 05:55:27;;;;;;;22.85;9.55;;;;;;;-1.55;100.00;94894.66;4844156;29;20050;-62
2021/12/14 05:57:56;;;;;;;18.27;8.73;;;;;;;-1.43;100.00;94897.53;4844636;29;20064;-62
2021/12/14 06:00:24;;;;;;;21.38;8.43;;;;;;;-1.43;100.00;94907.47;4842961;29;20054;-62
2021/12/14 06:02:51;;;;;;;21.25;8.23;;;;;;;-1.36;100.00;94918.59;4844965;29;20516;-62
2021/12/14 06:05:20;;;;;;;18.77;7.10;;;;;;;-1.47;100.00;94910.03;4843905;29;20050;-64
2021/12/14 06:07:49;;;;;;;20.77;8.25;;;;;;;-1.52;100.00;94912.06;4844885;29;20053;-62
2021/12/14 06:10:19;;;;;;;16.65;7.47;;;;;;;-1.53;100.00;94910.47;4844292;29;20074;-62
2021/12/14 06:12:46;;;;;;;19.70;7.28;;;;;;;-1.62;100.00;94905.88;4844975;29;20050;-62
2021/12/14 06:15:18;;;;;;;15.93;6.05;;;;;;;-1.76;100.00;94888.28;4844491;29;20050;-62
2021/12/14 06:17:45;;;;;;;13.20;5.00;;;;;;;-1.76;100.00;94872.91;4844832;29;20064;-62
2021/12/14 06:20:17;;;;;;;14.70;5.57;;;;;;;-1.70;100.00;94877.03;4843033;29;20077;-62
2021/12/14 06:22:46;;;;;;;12.75;5.28;;;;;;;-1.63;100.00;94876.56;4844760;29;20049;-62
2021/12/14 06:25:16;;;;;;;13.23;5.28;;;;;;;-1.70;100.00;94895.09;4844301;29;20111;-62
2021/12/14 06:27:45;;;;;;;12.60;5.35;;;;;;;-1.68;100.00;94900.97;4843071;29;20057;-62
2021/12/14 06:30:19;;;;;;;12.33;4.83;;;;;;;-1.76;99.82;94905.22;4844345;29;20403;-63
2021/12/14 06:32:57;;;;;;;16.10;5.70;;;;;;;-1.91;100.00;94894.88;4844769;29;20050;-63
2021/12/14 06:35:33;;;;;;;12.55;5.30;;;;;;;-1.97;100.00;94890.72;4843784;29;20054;-62
2021/12/14 06:40:52;;;;;;;14.13;5.25;;;;;;;-1.80;100.00;94885.41;4839818;29;20670;-62
2021/12/14 06:43:25;;;;;;;12.47;4.63;;;;;;;-1.91;100.00;94879.53;4855142;29;20050;-63
2021/12/14 06:45:57;;;;;;;12.98;4.95;;;;;;;-1.76;100.00;94885.59;4841674;29;20050;-62
2021/12/14 06:48:52;;;;;;;19.00;7.13;;;;;;;-1.62;99.98;94887.03;4840872;29;20050;-62
2021/12/14 06:51:27;;;;;;;14.38;6.20;;;;;;;-1.61;98.98;94880.56;4841065;29;20050;-63
2021/12/14 06:53:58;;;;;;;13.43;5.28;;;;;;;-1.57;99.09;94879.91;4841591;29;20049;-62
2021/12/14 06:56:28;;;;;;;13.23;5.60;;;;;;;-1.50;98.74;94878.34;4840512;29;20054;-63
2021/12/14 06:59:08;;;;;;;14.32;5.43;;;;;;;-1.43;98.89;94880.56;4841737;29;20058;-62
2021/12/14 07:01:46;;;;;;;14.85;5.80;;;;;;;-1.33;98.47;94877.56;4822259;29;20876;-62
2021/12/14 07:04:19;;;;;;;13.02;4.90;;;;;;;-1.39;98.99;94883.41;4804338;29;20050;-62
2021/12/14 07:06:53;;;;;;;15.00;6.28;;;;;;;-1.50;98.94;94891.00;4832735;29;20054;-62
2021/12/14 07:09:24;;;;;;;14.17;5.83;;;;;;;-1.55;99.35;94883.06;4841131;29;20064;-63
2021/12/14 07:12:05;;;;;;;16.20;6.93;;;;;;;-1.55;99.77;94896.53;4841374;29;20053;-62
2021/12/14 07:14:32;;;;;;;19.80;9.07;;;;;;;-1.45;99.38;94897.03;4840607;29;20504;-63
2021/12/14 07:17:08;;;;;;;14.32;5.90;;;;;;;-1.48;99.59;94894.97;4841392;29;20153;-62
2021/12/14 07:19:49;;;;;;;14.20;5.80;;;;;;;-1.45;99.21;94888.97;4840486;29;20415;-62
2021/12/14 07:22:32;;;;;;;14.00;5.50;;;;;;;-1.42;98.97;94903.69;4840654;29;20053;-62
2021/12/14 07:25:21;;;;;;;14.43;5.57;;;;;;;-1.29;98.61;94908.16;4841256;29;20072;-62
2021/12/14 07:27:49;;;;;;;13.90;6.07;;;;;;;-1.28;98.26;94907.03;4839966;29;21861;-62
2021/12/14 07:30:22;;;;;;;12.55;5.70;;;;;;;-1.27;98.50;94899.75;4840550;29;20045;-62
2021/12/14 07:32:53;;;;;;;15.63;6.78;;;;;;;-1.29;98.39;94901.94;4841079;29;20052;-62
2021/12/14 07:35:27;;;;;;;17.33;6.77;;;;;;;-1.24;98.79;94901.81;4840230;29;20049;-63
2021/12/14 07:38:03;;;;;;;18.77;7.28;;;;;;;-1.15;98.41;94917.97;4840718;29;20057;-63
2021/12/14 07:40:39;;;;;;;17.50;7.50;;;;;;;-1.14;97.89;94917.66;4840057;29;20469;-63
2021/12/14 07:43:20;;;;;;;17.75;7.43;;;;;;;-1.16;98.18;94927.97;4840668;29;20054;-63
2021/12/14 07:45:50;;;;;;;18.65;7.47;;;;;;;-1.17;98.11;94920.19;4811409;29;21479;-63
2021/12/14 07:48:19;;;;;;;71.63;31.03;;;;;;;-1.03;98.25;94926.22;4802966;29;20394;-63
2021/12/14 07:50:56;;;;;;;27.35;10.77;;;;;;;-0.98;98.03;94927.97;4823663;29;20093;-63
2021/12/14 07:53:31;;;;;;;22.55;9.00;;;;;;;-0.99;97.95;94931.75;4817209;29;20065;-64
2021/12/14 07:55:58;;;;;;;21.92;8.80;;;;;;;-0.97;97.58;94930.31;4803163;29;20053;-63
2021/12/14 07:58:51;;;;;;;20.02;8.13;;;;;;;-1.09;97.40;94924.78;4802858;29;20051;-63
2021/12/14 08:01:19;;;;;;;22.40;9.27;;;;;;;-0.99;97.89;94923.69;4803919;29;20091;-63
2021/12/14 08:03:46;;;;;;;25.33;9.25;;;;;;;-0.86;97.66;94917.34;4812341;29;20064;-63
2021/12/14 08:06:14;;;;;;;26.70;9.57;;;;;;;-0.78;97.57;94918.47;4830372;29;20049;-63
2021/12/14 08:08:44;;;;;;;22.40;8.90;;;;;;;-0.93;97.19;94914.31;4840063;29;20362;-63
2021/12/14 08:11:41;;;;;;;24.10;9.70;;;;;;;-0.78;96.98;94927.31;4840204;29;20046;-61
2021/12/14 08:14:12;;;;;;;22.27;8.47;;;;;;;-0.82;96.32;94935.25;4840243;29;20050;-63
2021/12/14 08:16:43;;;;;;;22.75;8.27;;;;;;;-0.74;96.22;94932.88;4839104;29;20100;-63
2021/12/14 08:19:35;;;;;;;22.13;9.27;;;;;;;-0.69;96.06;94930.00;4839966;29;20140;-62
2021/12/14 08:22:12;;;;;;;24.35;10.02;;;;;;;-0.59;95.58;94931.59;4834211;29;20053;-63
2021/12/14 08:24:48;;;;;;;26.63;11.43;;;;;;;-0.59;95.01;94926.19;4839125;29;20652;-63
2021/12/14 08:27:21;;;;;;;26.23;10.10;;;;;;;-0.63;95.01;94926.03;4839948;29;20046;-63
2021/12/14 08:29:54;;;;;;;25.92;10.63;;;;;;;-0.55;95.19;94911.75;4839915;29;20114;-63
2021/12/14 08:32:30;;;;;;;27.83;11.93;;;;;;;-0.40;95.51;94913.16;4839580;29;20415;-63
2021/12/14 08:34:59;;;;;;;24.50;10.43;;;;;;;-0.16;94.98;94919.91;4840012;29;20575;-63
2021/12/14 08:37:43;;;;;;;24.85;10.93;;;;;;;-0.21;94.01;94915.47;4839216;29;20163;-63
2021/12/14 08:40:23;;;;;;;20.50;8.43;;;;;;;-0.45;93.67;94930.28;4838333;29;20465;-62
2021/12/14 08:46:09;;;;;;;18.58;7.57;;;;;;;-0.46;94.79;94925.22;4834347;29;20603;-63
2021/12/14 08:48:44;;;;;;;17.35;7.30;;;;;;;-0.54;95.01;94929.53;4838744;29;21622;-63
2021/12/14 08:51:16;;;;;;;20.00;8.10;;;;;;;-0.55;94.93;94921.75;4839363;29;20060;-63
2021/12/14 08:54:09;;;;;;;18.30;7.97;;;;;;;-0.23;95.51;94918.50;4839671;29;20053;-63
2021/12/14 08:56:43;;;;;;;18.05;7.75;;;;;;;-0.23;94.19;94926.59;4838457;29;20054;-64
2021/12/14 08:59:10;;;;;;;19.30;7.72;;;;;;;-0.04;93.61;94923.53;4837983;29;20050;-62
2021/12/14 09:01:40;;;;;;;21.35;9.90;;;;;;;0.00;93.21;94918.28;4853254;29;20050;-63
2021/12/14 09:04:16;;;;;;;30.33;13.43;;;;;;;0.27;93.42;94924.34;4839237;29;20061;-63
2021/12/14 09:06:46;;;;;;;18.73;8.40;;;;;;;0.31;93.08;94922.59;4838534;29;20861;-63
2021/12/14 09:09:16;;;;;;;16.70;7.65;;;;;;;0.28;92.13;94915.13;4839128;29;20507;-63
2021/12/14 09:11:46;;;;;;;15.52;7.22;;;;;;;0.23;92.39;94924.19;4839421;29;20060;-63
2021/12/14 09:14:17;;;;;;;16.88;7.07;;;;;;;0.22;92.00;94919.91;4839101;29;20063;-63
2021/12/14 09:16:49;;;;;;;18.13;8.00;;;;;;;0.25;92.04;94930.06;4838869;29;20058;-63
2021/12/14 09:19:26;;;;;;;14.97;6.80;;;;;;;0.01;92.67;94933.34;4837702;29;20496;-63
2021/12/14 09:21:57;;;;;;;16.17;7.20;;;;;;;0.05;93.26;94928.88;4839053;29;20064;-63
2021/12/14 09:24:32;;;;;;;16.33;7.97;;;;;;;0.17;93.27;94931.69;4838797;29;20064;-63
2021/12/14 09:27:05;;;;;;;27.40;10.55;;;;;;;0.44;92.22;94926.94;4839600;29;20054;-63
2021/12/14 09:29:33;;;;;;;30.65;12.55;;;;;;;0.54;92.36;94931.19;4838660;29;20049;-63
2021/12/14 09:32:06;;;;;;;23.10;9.47;;;;;;;0.84;90.91;94928.47;4839156;29;20058;-63
2021/12/14 09:34:38;;;;;;;19.17;8.20;;;;;;;0.84;91.03;94925.75;4838681;29;20411;-63
2021/12/14 09:37:09;;;;;;;24.63;10.80;;;;;;;0.89;90.92;94929.06;4839163;29;20049;-63
2021/12/14 09:39:40;;;;;;;22.40;10.20;;;;;;;1.06;89.66;94930.06;4837887;29;21856;-63
2021/12/14 09:42:13;;;;;;;42.92;21.23;;;;;;;1.50;88.31;94922.38;4823181;29;20446;-64
2021/12/14 09:44:44;;;;;;;18.57;8.70;;;;;;;1.23;87.92;94927.22;4814877;29;20648;-63
2021/12/14 09:47:18;;;;;;;21.35;9.15;;;;;;;1.26;88.62;94929.25;4820835;29;20054;-62
2021/12/14 09:49:47;;;;;;;21.70;10.13;;;;;;;1.78;86.75;94926.06;4824661;29;20053;-64
2021/12/14 09:52:20;;;;;;;19.98;9.52;;;;;;;2.04;85.14;94932.34;4839001;29;20053;-64
2021/12/14 09:54:48;;;;;;;17.02;8.82;;;;;;;3.19;82.67;94912.28;4837644;29;20065;-64
2021/12/14 09:57:25;;;;;;;17.23;8.37;;;;;;;2.82;81.83;94909.66;4838453;29;20061;-64
2021/12/14 09:59:55;;;;;;;17.20;8.10;;;;;;;3.34;80.32;94908.84;4838665;29;20046;-63
2021/12/14 10:02:27;;;;;;;17.17;8.60;;;;;;;5.10;75.05;94891.41;4838486;29;20061;-64
2021/12/14 10:04:58;;;;;;;17.13;7.90;;;;;;;6.07;71.57;94893.31;4838874;29;20050;-64
2021/12/14 10:07:27;;;;;;;14.45;7.65;;;;;;;6.32;69.90;94885.56;4820356;29;20058;-64
2021/12/14 10:09:57;;;;;;;13.30;7.13;;;;;;;7.06;67.38;94876.13;4820365;29;20455;-64
2021/12/14 10:15:12;;;;;;;14.43;8.57;;;;;;;8.70;60.24;94856.38;4821759;29;20057;-64
2021/12/14 10:17:40;;;;;;;13.30;7.47;;;;;;;6.51;66.23;94846.50;4822741;29;20051;-65
2021/12/14 10:20:11;;;;;;;12.63;7.32;;;;;;;7.96;61.74;94833.47;4824104;29;20053;-64
2021/12/14 10:22:38;;;;;;;11.43;6.90;;;;;;;9.54;57.61;94834.53;4822903;29;21022;-64
2021/12/14 10:25:10;;;;;;;12.25;7.50;;;;;;;10.46;53.41;94824.13;4837826;29;20051;-64
2021/12/14 10:27:38;;;;;;;13.02;7.30;;;;;;;10.70;54.01;94822.53;4822527;29;20994;-62
2021/12/14 10:30:26;;;;;;;11.35;6.90;;;;;;;11.90;52.46;94821.75;4823693;29;20054;-64
2021/12/14 10:32:52;;;;;;;11.23;7.30;;;;;;;13.80;46.81;94828.28;4823056;29;21673;-65
2021/12/14 10:35:25;;;;;;;11.30;6.77;;;;;;;11.99;49.24;94836.66;4823190;29;20056;-62
2021/12/14 10:39:03;;;;;;;12.43;7.40;;;;;;;8.39;60.30;94847.50;4823694;29;20049;-65
2021/12/14 10:43:47;;;;;;;15.50;9.00;;;;;;;7.38;63.61;94860.19;4810204;29;20612;-65
2021/12/14 10:46:25;;;;;;;14.55;8.43;;;;;;;7.83;62.45;94854.81;4823654;29;20330;-64
2021/12/14 10:48:55;;;;;;;21.40;11.70;;;;;;;6.11;68.96;94860.66;4837096;29;20073;-64
2021/12/14 10:51:26;;;;;;;21.67;11.02;;;;;;;7.76;65.61;94869.19;4839252;29;20058;-64
2021/12/14 10:54:00;;;;;;;17.60;8.90;;;;;;;10.47;57.58;94864.91;4841545;29;20057;-64
2021/12/14 10:57:06;;;;;;;15.27;8.70;;;;;;;13.02;49.55;94857.47;4853423;29;20923;-65
2021/12/14 10:59:38;;;;;;;15.50;9.65;;;;;;;8.62;57.63;94876.66;4840471;29;20114;-65
2021/12/14 11:02:07;;;;;;;14.30;8.87;;;;;;;8.35;61.60;94883.06;4841769;29;20399;-65
2021/12/14 11:04:39;;;;;;;15.20;9.43;;;;;;;7.96;63.11;94883.44;4840937;29;20415;-64
2021/12/14 11:07:21;;;;;;;16.77;10.20;;;;;;;8.27;62.70;94883.34;4841477;29;20496;-64
2021/12/14 11:09:53;;;;;;;15.98;8.90;;;;;;;7.64;64.26;94879.59;4840386;29;21686;-64
2021/12/14 11:12:30;;;;;;;17.42;9.57;;;;;;;6.59;68.96;94875.47;4840906;29;20408;-64
2021/12/14 11:15:03;;;;;;;15.37;8.50;;;;;;;6.57;69.26;94877.00;4841196;29;20058;-64
2021/12/14 11:20:28;;;;;;;18.45;10.10;;;;;;;7.36;68.76;94876.16;4840901;29;20050;-64
2021/12/14 11:23:18;;;;;;;35.78;20.92;;;;;;;10.99;58.43;94867.22;4841376;29;20052;-64
2021/12/14 11:25:57;;;;;;;16.30;9.45;;;;;;;12.57;52.28;94861.78;4839664;29;20393;-62
2021/12/14 11:28:33;;;;;;;14.73;8.73;;;;;;;13.27;48.88;94852.50;4840896;29;20053;-62
2021/12/14 11:31:07;;;;;;;15.13;8.88;;;;;;;11.83;53.66;94857.50;4840952;29;20053;-62
2021/12/14 11:33:37;;;;;;;17.95;11.00;;;;;;;12.55;50.05;94853.16;4839309;29;20046;-65
2021/12/14 11:36:32;;;;;;;16.30;9.30;;;;;;;12.19;52.36;94850.69;4840891;29;20062;-62
2021/12/14 11:39:03;;;;;;;15.93;9.13;;;;;;;12.84;49.42;94843.88;4833003;29;20792;-62
2021/12/14 11:41:41;;;;;;;14.43;9.00;;;;;;;12.17;51.79;94844.78;4832492;29;20050;-62
2021/12/14 11:44:12;;;;;;;17.13;10.02;;;;;;;13.62;48.71;94838.75;4819913;29;20081;-62
2021/12/14 11:47:41;;;;;;;17.38;10.23;;;;;;;13.47;47.67;94835.41;4803197;29;20764;-63
2021/12/14 11:50:23;;;;;;;15.77;9.52;;;;;;;14.19;45.63;94844.31;4816882;29;20447;-63
2021/12/14 11:53:11;;;;;;;18.63;10.73;;;;;;;13.79;46.55;94841.28;4839687;29;20671;-63
2021/12/14 11:55:56;;;;;;;15.17;9.50;;;;;;;14.83;45.03;94844.56;4823173;29;20042;-64
2021/12/14 11:58:33;;;;;;;17.45;11.63;;;;;;;13.74;47.08;94835.44;4839872;29;20050;-63
2021/12/14 12:01:18;;;;;;;15.45;10.77;;;;;;;16.03;43.10;94832.81;4840564;29;20050;-64
2021/12/14 12:04:02;;;;;;;15.60;10.10;;;;;;;16.80;41.17;94825.09;4839229;29;20072;-65
2021/12/14 12:09:40;;;;;;;15.00;10.10;;;;;;;16.20;40.38;94837.19;4824327;29;20058;-64
2021/12/14 12:12:29;;;;;;;14.50;9.70;;;;;;;16.47;41.20;94834.19;4840246;29;20050;-64
2021/12/14 12:15:02;;;;;;;14.70;11.00;;;;;;;14.33;45.60;94848.06;4839203;29;20775;-63
2021/12/14 12:17:46;;;;;;;14.20;9.77;;;;;;;13.38;48.32;94844.13;4840020;29;20042;-63
2021/12/14 12:20:46;;;;;;;14.98;9.65;;;;;;;11.23;53.99;94840.06;4839789;29;20128;-62
2021/12/14 12:23:16;;;;;;;19.77;11.83;;;;;;;10.33;56.98;94831.97;4839578;29;20122;-63
2021/12/14 12:25:47;;;;;;;18.50;11.43;;;;;;;9.07;61.71;94839.00;4839624;29;20054;-63
2021/12/14 12:28:16;;;;;;;17.65;10.93;;;;;;;8.97;62.70;94832.28;4839410;29;20064;-64
2021/12/14 12:30:51;;;;;;;20.13;11.50;;;;;;;9.30;62.26;94834.03;4839904;29;20049;-63
2021/12/14 12:33:29;;;;;;;22.08;11.40;;;;;;;8.71;64.61;94828.66;4839201;29;20109;-64